Time;durP1;ratioP1;P1;durP2;ratioP2;P2;SDS_P1;SDS_P2;PMS_P1;PMS_P2;Temp;Humidity;BMP_temperature;BMP_pressure;BME280_temperature;BME280_humidity;BME280_pressure;Samples;Min_cycle;Max_cycle;Signal;HPM_P1;HPM_P2
2022/06/22 00:00:04;;;;;;;8.10;7.37;;;23.70;98.10;;;;;;5136321;27;20476;-71
2022/06/22 00:02:36;;;;;;;9.10;8.40;;;23.70;98.30;;;;;;5135702;27;20492;-70
2022/06/22 00:05:07;;;;;;;9.27;8.40;;;23.60;98.50;;;;;;5136010;27;20492;-71
2022/06/22 00:07:37;;;;;;;9.20;8.30;;;23.60;98.80;;;;;;5136259;27;20496;-70
2022/06/22 00:10:13;;;;;;;8.20;7.50;;;23.60;99.00;;;;;;5136163;27;20529;-71
2022/06/22 00:12:40;;;;;;;8.40;7.80;;;23.60;99.10;;;;;;5135546;27;20495;-72
2022/06/22 00:15:27;;;;;;;9.23;8.53;;;23.60;99.00;;;;;;5135477;27;21055;-70
2022/06/22 00:17:53;;;;;;;10.00;9.00;;;23.60;99.30;;;;;;5135935;27;20503;-70
2022/06/22 00:20:24;;;;;;;7.90;7.37;;;23.60;99.60;;;;;;5135661;27;20534;-70
2022/06/22 00:22:53;;;;;;;9.40;8.60;;;23.60;99.90;;;;;;5135425;27;20470;-71
2022/06/22 00:25:22;;;;;;;8.90;8.20;;;23.50;99.90;;;;;;5135289;27;20473;-70
2022/06/22 00:27:49;;;;;;;9.20;8.40;;;23.40;99.90;;;;;;5136051;27;20476;-69
2022/06/22 00:30:31;;;;;;;10.40;9.50;;;23.40;99.90;;;;;;5135424;27;20446;-69
2022/06/22 00:33:12;;;;;;;8.97;8.27;;;23.20;99.90;;;;;;5135302;27;20463;-69
2022/06/22 00:35:57;;;;;;;9.10;8.30;;;23.20;99.90;;;;;;5135543;27;20476;-69
2022/06/22 00:38:29;;;;;;;10.00;9.20;;;23.20;99.90;;;;;;5135838;27;20523;-69
2022/06/22 00:40:59;;;;;;;9.40;8.60;;;23.10;99.90;;;;;;5135337;27;20479;-69
2022/06/22 00:43:29;;;;;;;9.77;8.97;;;23.20;99.90;;;;;;5135009;27;20474;-69
2022/06/22 00:45:58;;;;;;;9.63;8.93;;;23.10;99.90;;;;;;5135556;27;20431;-69
2022/06/22 00:48:31;;;;;;;10.30;9.40;;;23.10;99.90;;;;;;5135401;27;20945;-68
2022/06/22 00:51:03;;;;;;;10.20;9.40;;;23.10;99.90;;;;;;5135421;27;20461;-69
2022/06/22 00:53:34;;;;;;;10.17;9.20;;;23.10;99.90;;;;;;5134687;27;20921;-70
2022/06/22 00:56:09;;;;;;;10.00;9.10;;;23.00;99.90;;;;;;5135200;27;20443;-69
2022/06/22 00:58:43;;;;;;;9.87;8.97;;;22.90;99.90;;;;;;5134979;27;20446;-68
2022/06/22 01:01:19;;;;;;;10.30;9.43;;;22.90;99.90;;;;;;5134753;27;20886;-69
2022/06/22 01:03:54;;;;;;;10.57;9.67;;;22.90;99.90;;;;;;5134949;27;20474;-70
2022/06/22 01:06:28;;;;;;;9.70;9.00;;;22.80;99.90;;;;;;5135323;27;20864;-71
2022/06/22 01:09:02;;;;;;;10.50;9.60;;;22.80;99.90;;;;;;5134964;27;20478;-71
2022/06/22 01:14:23;;;;;;;9.57;8.80;;;22.80;99.90;;;;;;5134573;27;20478;-70
2022/06/22 01:16:53;;;;;;;10.67;9.80;;;22.80;99.90;;;;;;5134896;27;20861;-70
2022/06/22 01:19:32;;;;;;;10.10;9.20;;;22.90;99.90;;;;;;5134456;27;20983;-70
2022/06/22 01:22:12;;;;;;;10.80;9.90;;;22.90;99.90;;;;;;5134940;27;20520;-69
2022/06/22 01:24:50;;;;;;;9.83;9.03;;;23.00;99.90;;;;;;5136306;27;20475;-70
2022/06/22 01:27:26;;;;;;;11.40;9.30;;;23.00;99.90;;;;;;5135956;27;20954;-70
2022/06/22 01:29:54;;;;;;;11.17;10.30;;;23.00;99.90;;;;;;5135690;27;20474;-70
2022/06/22 01:32:24;;;;;;;10.83;9.93;;;23.00;99.90;;;;;;5135734;27;20891;-70
2022/06/22 01:34:55;;;;;;;10.70;9.70;;;23.10;99.90;;;;;;5135575;27;20897;-70
2022/06/22 01:37:25;;;;;;;11.50;10.40;;;22.90;99.90;;;;;;5135829;27;20565;-70
2022/06/22 01:39:58;;;;;;;11.57;10.57;;;22.80;99.90;;;;;;5135714;27;20450;-70
2022/06/22 01:42:34;;;;;;;10.90;10.00;;;22.80;99.90;;;;;;5135257;27;20508;-70
2022/06/22 01:45:06;;;;;;;10.70;9.67;;;22.80;99.90;;;;;;5134990;27;20848;-70
2022/06/22 01:47:40;;;;;;;11.30;10.30;;;22.80;99.90;;;;;;5136080;27;20605;-70
2022/06/22 01:50:16;;;;;;;10.43;9.63;;;22.80;99.90;;;;;;5135909;27;20459;-70
2022/06/22 01:52:54;;;;;;;10.93;10.00;;;22.90;99.90;;;;;;5134962;27;20839;-69
2022/06/22 01:55:30;;;;;;;10.57;9.57;;;22.90;99.90;;;;;;5135198;27;20513;-70
2022/06/22 01:58:07;;;;;;;10.13;9.33;;;22.80;99.90;;;;;;5135450;27;20445;-70
2022/06/22 02:00:34;;;;;;;10.93;9.93;;;22.80;99.90;;;;;;5135429;27;20471;-70
2022/06/22 02:03:10;;;;;;;10.93;10.07;;;22.80;99.90;;;;;;5135131;27;20493;-70
2022/06/22 02:05:43;;;;;;;11.37;10.57;;;22.80;99.90;;;;;;5135070;27;20469;-70
2022/06/22 02:08:14;;;;;;;11.20;10.30;;;22.80;99.90;;;;;;5135272;27;20849;-70
2022/06/22 02:10:47;;;;;;;11.90;10.90;;;22.80;99.90;;;;;;5135191;27;20440;-70
2022/06/22 02:13:25;;;;;;;11.57;10.67;;;22.70;99.90;;;;;;5135032;27;20892;-70
2022/06/22 02:15:57;;;;;;;12.17;11.17;;;22.70;99.90;;;;;;5134987;27;20513;-70
2022/06/22 02:18:30;;;;;;;12.93;11.63;;;22.50;99.90;;;;;;5135127;27;20470;-70
2022/06/22 02:21:00;;;;;;;12.20;11.13;;;22.40;99.90;;;;;;5134916;27;20474;-70
2022/06/22 02:23:30;;;;;;;11.93;10.93;;;22.20;99.90;;;;;;5134886;27;20493;-70
2022/06/22 02:26:15;;;;;;;11.43;10.53;;;22.20;99.90;;;;;;5134955;27;20430;-70
2022/06/22 02:28:45;;;;;;;11.57;10.60;;;22.30;99.90;;;;;;5134779;27;20438;-70
2022/06/22 02:31:12;;;;;;;12.00;10.90;;;22.50;99.90;;;;;;5134601;27;20996;-70
2022/06/22 02:33:44;;;;;;;12.10;11.00;;;22.50;99.90;;;;;;5134629;27;20477;-70
2022/06/22 02:36:13;;;;;;;11.50;10.50;;;22.60;99.90;;;;;;5134733;27;20475;-70
2022/06/22 02:38:42;;;;;;;11.37;10.47;;;22.60;99.90;;;;;;5134642;27;20936;-70
2022/06/22 02:46:43;;;;;;;12.10;11.00;;;22.60;99.90;;;;;;5135148;27;20418;-70
2022/06/22 02:49:17;;;;;;;11.93;10.93;;;22.60;99.90;;;;;;5134749;27;20495;-70
2022/06/22 02:51:47;;;;;;;12.10;11.03;;;22.60;99.90;;;;;;5134994;27;20848;-70
2022/06/22 02:54:25;;;;;;;12.50;11.30;;;22.60;99.90;;;;;;5134550;27;20974;-70
2022/06/22 02:57:01;;;;;;;11.90;10.90;;;22.60;99.90;;;;;;5138213;27;20437;-70
2022/06/22 02:59:30;;;;;;;12.33;11.33;;;22.60;99.90;;;;;;5138887;27;20525;-70
2022/06/22 03:01:57;;;;;;;13.20;12.10;;;22.50;99.90;;;;;;5138852;27;20489;-70
2022/06/22 03:04:24;;;;;;;13.50;12.20;;;22.50;99.90;;;;;;5138652;27;20435;-70
2022/06/22 03:06:54;;;;;;;12.03;11.13;;;22.50;99.90;;;;;;5138739;27;20940;-70
2022/06/22 03:09:21;;;;;;;13.60;12.40;;;22.50;99.90;;;;;;5138633;27;20465;-70
2022/06/22 03:11:53;;;;;;;12.40;11.37;;;22.50;99.90;;;;;;5138328;27;20497;-70
2022/06/22 03:14:23;;;;;;;13.07;11.90;;;22.50;99.90;;;;;;5138133;27;20434;-70
2022/06/22 03:16:55;;;;;;;13.30;12.20;;;22.50;99.90;;;;;;5138302;27;20474;-70
2022/06/22 03:19:28;;;;;;;12.90;11.80;;;22.60;99.90;;;;;;5138535;27;20438;-70
2022/06/22 03:21:56;;;;;;;13.80;12.50;;;22.70;99.90;;;;;;5138246;27;20878;-70
2022/06/22 03:24:40;;;;;;;12.93;11.73;;;22.70;99.90;;;;;;5138124;27;20470;-71
2022/06/22 03:27:15;;;;;;;13.63;12.53;;;22.60;99.90;;;;;;5138713;27;20442;-70
2022/06/22 03:29:48;;;;;;;13.47;12.20;;;22.70;99.90;;;;;;5138282;27;20438;-70
2022/06/22 03:32:23;;;;;;;13.90;12.70;;;22.70;99.90;;;;;;5138290;27;20459;-70
2022/06/22 03:35:02;;;;;;;13.00;11.70;;;22.70;99.90;;;;;;5138356;27;20472;-70
2022/06/22 03:37:35;;;;;;;13.33;12.30;;;22.80;99.90;;;;;;5138725;27;20871;-70
2022/06/22 03:40:08;;;;;;;14.97;13.67;;;22.70;99.90;;;;;;5138698;27;20457;-70
2022/06/22 03:42:41;;;;;;;13.00;12.00;;;22.60;99.90;;;;;;5137951;27;20470;-70
2022/06/22 03:45:14;;;;;;;14.07;12.87;;;22.50;99.90;;;;;;5138244;27;20525;-70
2022/06/22 03:47:50;;;;;;;13.87;12.47;;;22.50;99.90;;;;;;5138015;27;20465;-70
2022/06/22 03:50:23;;;;;;;13.77;12.47;;;22.50;99.90;;;;;;5138059;27;20466;-70
2022/06/22 03:52:55;;;;;;;13.60;12.40;;;22.40;99.90;;;;;;5137942;27;20470;-70
2022/06/22 03:55:25;;;;;;;13.27;12.17;;;22.50;99.90;;;;;;5137911;27;20526;-70
2022/06/22 03:57:55;;;;;;;13.50;12.40;;;22.30;99.90;;;;;;5137767;27;20444;-70
2022/06/22 04:00:24;;;;;;;14.23;13.03;;;22.30;99.90;;;;;;5137518;27;20470;-70
2022/06/22 04:02:53;;;;;;;15.17;13.83;;;22.40;99.90;;;;;;5137505;27;20466;-70
2022/06/22 04:05:23;;;;;;;13.60;12.30;;;22.40;99.90;;;;;;5137626;27;20430;-70
2022/06/22 04:07:51;;;;;;;13.07;11.97;;;22.50;99.90;;;;;;5136840;27;20477;-70
2022/06/22 04:10:32;;;;;;;15.43;14.13;;;22.50;99.90;;;;;;5137260;27;20474;-70
2022/06/22 04:13:01;;;;;;;14.47;13.17;;;22.40;99.90;;;;;;5137347;27;20500;-70
2022/06/22 04:15:33;;;;;;;14.03;12.90;;;22.30;99.90;;;;;;5137119;27;20509;-70
2022/06/22 04:18:06;;;;;;;13.67;12.47;;;22.30;99.90;;;;;;5137459;27;20855;-70
2022/06/22 04:20:52;;;;;;;14.53;13.30;;;22.40;99.90;;;;;;5137280;27;20939;-70
2022/06/22 04:23:30;;;;;;;14.03;12.93;;;22.40;99.90;;;;;;5137114;27;20508;-70
2022/06/22 04:26:00;;;;;;;13.60;12.47;;;22.50;99.90;;;;;;5137115;27;20477;-70
2022/06/22 04:28:32;;;;;;;15.47;13.97;;;22.40;99.90;;;;;;5137406;27;20481;-70
2022/06/22 04:31:00;;;;;;;14.70;13.40;;;22.40;99.90;;;;;;5137062;27;20431;-70
2022/06/22 04:33:34;;;;;;;13.80;12.67;;;22.30;99.90;;;;;;5136776;27;20473;-70
2022/06/22 04:36:06;;;;;;;14.30;13.10;;;22.20;99.90;;;;;;5136982;27;20496;-70
2022/06/22 04:38:38;;;;;;;15.13;13.63;;;22.10;99.90;;;;;;5136846;27;20477;-70
2022/06/22 04:41:16;;;;;;;14.40;13.00;;;22.20;99.90;;;;;;5136931;27;20438;-70
2022/06/22 04:43:43;;;;;;;15.37;13.87;;;22.20;99.90;;;;;;5136915;27;20430;-70
2022/06/22 04:46:15;;;;;;;13.50;12.30;;;22.20;99.90;;;;;;5137056;27;20462;-70
2022/06/22 04:48:47;;;;;;;14.80;13.40;;;22.20;99.90;;;;;;5137561;27;20477;-70
2022/06/22 04:51:17;;;;;;;15.20;13.90;;;22.10;99.90;;;;;;5136956;27;20453;-70
2022/06/22 04:53:48;;;;;;;15.13;13.70;;;22.00;99.90;;;;;;5136564;27;20481;-70
2022/06/22 04:56:19;;;;;;;15.90;14.50;;;21.90;99.90;;;;;;5136631;27;20474;-70
2022/06/22 04:58:50;;;;;;;15.20;13.90;;;21.90;99.90;;;;;;5136413;27;20971;-70
2022/06/22 05:01:22;;;;;;;15.50;14.17;;;21.90;99.90;;;;;;5136506;27;20468;-70
2022/06/22 05:03:54;;;;;;;14.80;13.37;;;21.90;99.90;;;;;;5136297;27;20438;-70
2022/06/22 05:06:31;;;;;;;13.77;12.67;;;21.90;99.90;;;;;;5136505;27;20521;-70
2022/06/22 05:09:02;;;;;;;14.97;12.60;;;21.90;99.90;;;;;;5136421;27;20478;-70
2022/06/22 05:11:37;;;;;;;13.47;12.20;;;22.00;99.90;;;;;;5136280;27;20498;-70
2022/06/22 05:14:12;;;;;;;14.77;13.37;;;22.00;99.90;;;;;;5136144;27;20476;-70
2022/06/22 05:16:39;;;;;;;13.73;12.63;;;22.10;99.90;;;;;;5136233;27;20556;-70
2022/06/22 05:19:13;;;;;;;15.27;13.77;;;22.20;99.90;;;;;;5135123;27;20853;-70
2022/06/22 05:21:43;;;;;;;13.90;12.63;;;22.40;99.90;;;;;;5136094;27;20501;-70
2022/06/22 05:24:16;;;;;;;14.13;12.93;;;22.40;99.90;;;;;;5135964;27;20855;-70
2022/06/22 05:26:44;;;;;;;14.67;13.47;;;22.40;99.90;;;;;;5136094;27;20434;-70
2022/06/22 05:29:15;;;;;;;15.23;13.13;;;22.30;99.90;;;;;;5135960;27;20438;-70
2022/06/22 05:31:46;;;;;;;14.70;12.60;;;22.40;99.90;;;;;;5135775;27;20462;-70
2022/06/22 05:34:19;;;;;;;13.90;12.60;;;22.40;99.90;;;;;;5135710;27;20465;-70
2022/06/22 05:36:54;;;;;;;13.43;12.13;;;22.50;99.90;;;;;;5135868;27;20880;-70
2022/06/22 05:39:21;;;;;;;14.93;13.63;;;22.60;99.90;;;;;;5135783;27;20522;-70
2022/06/22 05:41:48;;;;;;;14.00;12.70;;;22.70;99.90;;;;;;5135739;27;20893;-70
2022/06/22 05:44:18;;;;;;;13.80;12.50;;;22.90;99.90;;;;;;5135556;27;20446;-70
2022/06/22 05:46:50;;;;;;;15.43;14.00;;;23.00;99.90;;;;;;5135690;27;20467;-70
2022/06/22 05:49:20;;;;;;;15.57;14.07;;;23.20;99.90;;;;;;5135661;27;20440;-70
2022/06/22 05:51:54;;;;;;;15.77;14.27;;;23.30;99.90;;;;;;5135386;27;20492;-70
2022/06/22 05:54:26;;;;;;;14.93;13.60;;;23.40;99.90;;;;;;5135391;27;21030;-70
2022/06/22 05:57:03;;;;;;;13.73;12.43;;;23.40;99.90;;;;;;5135437;27;20567;-70
2022/06/22 05:59:39;;;;;;;15.77;14.27;;;23.50;99.90;;;;;;5135436;27;20482;-70
2022/06/22 06:02:13;;;;;;;15.20;13.80;;;23.50;99.90;;;;;;5135361;27;20495;-71
2022/06/22 06:04:47;;;;;;;15.00;13.70;;;23.50;99.90;;;;;;5135285;27;20448;-70
2022/06/22 06:07:18;;;;;;;15.87;14.40;;;23.60;99.90;;;;;;5135313;27;20459;-70
2022/06/22 06:09:45;;;;;;;14.43;13.03;;;23.60;99.90;;;;;;5135084;27;20437;-70
2022/06/22 06:12:18;;;;;;;16.13;14.60;;;23.60;99.90;;;;;;5134983;27;20464;-70
2022/06/22 06:14:49;;;;;;;14.60;13.30;;;23.70;99.90;;;;;;5135159;27;20440;-70
2022/06/22 06:17:21;;;;;;;13.23;12.07;;;23.70;99.90;;;;;;5135056;27;20511;-70
2022/06/22 06:19:53;;;;;;;13.73;12.47;;;23.70;99.90;;;;;;5134842;27;20438;-70
2022/06/22 06:22:22;;;;;;;13.77;12.67;;;23.70;99.90;;;;;;5134591;27;20978;-70
2022/06/22 06:27:41;;;;;;;13.60;12.40;;;23.60;99.90;;;;;;5135030;27;20412;-70
2022/06/22 06:30:16;;;;;;;13.63;12.63;;;23.60;99.90;;;;;;5134775;27;20868;-70
2022/06/22 06:32:48;;;;;;;25.67;23.23;;;23.60;99.90;;;;;;5134441;27;20496;-70
2022/06/22 06:35:26;;;;;;;15.77;14.37;;;23.80;99.90;;;;;;5135021;27;20462;-70
2022/06/22 06:38:01;;;;;;;14.20;13.00;;;23.80;99.90;;;;;;5134884;27;20440;-70
2022/06/22 06:40:37;;;;;;;14.17;12.87;;;23.60;99.90;;;;;;5134766;27;20478;-70
2022/06/22 06:43:33;;;;;;;15.30;14.00;;;23.50;99.90;;;;;;5134556;27;20791;-70
2022/06/22 06:46:01;;;;;;;14.00;12.90;;;23.50;99.90;;;;;;5129440;27;20778;-70
2022/06/22 06:48:31;;;;;;;15.07;13.67;;;23.40;99.90;;;;;;5134671;27;20439;-70
2022/06/22 06:51:03;;;;;;;14.40;13.10;;;23.30;99.90;;;;;;5134649;27;20440;-70
2022/06/22 06:53:34;;;;;;;15.67;14.13;;;23.20;99.90;;;;;;5134400;27;20448;-70
2022/06/22 06:56:05;;;;;;;16.07;14.40;;;23.10;99.90;;;;;;5134625;27;20910;-70
2022/06/22 06:58:40;;;;;;;15.20;13.80;;;23.00;99.90;;;;;;5134753;27;20470;-70
2022/06/22 07:01:10;;;;;;;17.57;14.47;;;22.90;99.90;;;;;;5134413;27;20499;-71
2022/06/22 07:03:40;;;;;;;14.77;13.37;;;22.80;99.90;;;;;;5134434;27;20475;-70
2022/06/22 07:06:10;;;;;;;15.80;14.50;;;22.70;99.90;;;;;;5134797;27;20520;-70
2022/06/22 07:08:39;;;;;;;15.50;14.10;;;22.60;99.90;;;;;;5135070;27;20471;-70
2022/06/22 07:11:13;;;;;;;17.33;15.53;;;22.50;99.90;;;;;;5134577;27;20526;-70
2022/06/22 07:13:47;;;;;;;17.03;15.40;;;22.40;99.90;;;;;;5134430;27;20466;-70
2022/06/22 07:16:21;;;;;;;17.60;16.10;;;22.30;99.90;;;;;;5134119;27;21070;-70
2022/06/22 07:18:53;;;;;;;16.37;14.97;;;22.40;99.90;;;;;;5134413;27;20494;-70
2022/06/22 07:21:25;;;;;;;15.53;14.03;;;22.30;99.90;;;;;;5134351;27;20466;-70
2022/06/22 07:23:56;;;;;;;14.77;13.50;;;22.10;99.90;;;;;;5134273;27;20454;-70
2022/06/22 07:26:33;;;;;;;17.67;14.70;;;22.10;99.90;;;;;;5134083;27;20473;-70
2022/06/22 07:29:06;;;;;;;14.90;13.67;;;22.10;99.90;;;;;;5134143;27;20960;-70
2022/06/22 07:31:39;;;;;;;16.30;14.70;;;22.20;99.90;;;;;;5134040;27;20862;-70
2022/06/22 07:34:14;;;;;;;16.70;15.20;;;22.00;99.90;;;;;;5134054;27;20928;-70
2022/06/22 07:36:48;;;;;;;15.93;14.47;;;21.80;99.90;;;;;;5134096;27;20564;-70
2022/06/22 07:39:21;;;;;;;16.33;14.83;;;21.60;99.90;;;;;;5134027;27;20899;-70
2022/06/22 07:41:48;;;;;;;16.53;14.93;;;21.40;99.90;;;;;;5141278;27;20474;-70
2022/06/22 07:44:19;;;;;;;16.30;14.70;;;21.20;99.90;;;;;;5136621;27;20536;-70
2022/06/22 07:46:50;;;;;;;15.60;14.30;;;21.20;99.90;;;;;;5136641;27;20472;-69
2022/06/22 07:49:21;;;;;;;16.60;15.10;;;21.10;99.90;;;;;;5136805;27;20480;-70
2022/06/22 07:51:51;;;;;;;15.23;13.97;;;21.10;99.90;;;;;;5136498;27;20805;-70
2022/06/22 07:54:23;;;;;;;16.40;14.70;;;21.30;99.90;;;;;;5136566;27;20481;-71
2022/06/22 07:57:01;;;;;;;16.50;15.10;;;21.30;99.90;;;;;;5136761;27;20905;-70
2022/06/22 07:59:33;;;;;;;16.13;14.53;;;21.40;99.90;;;;;;5136797;27;20471;-71
2022/06/22 08:02:05;;;;;;;15.90;14.40;;;21.40;99.90;;;;;;5136153;27;20468;-70
2022/06/22 08:04:37;;;;;;;16.90;15.30;;;21.60;99.90;;;;;;5136382;27;20956;-71
2022/06/22 08:07:11;;;;;;;14.63;13.33;;;21.70;99.90;;;;;;5136396;27;20444;-70
2022/06/22 08:09:44;;;;;;;14.67;13.37;;;21.90;99.90;;;;;;5136747;27;20860;-70
2022/06/22 08:12:17;;;;;;;15.93;14.53;;;22.20;99.90;;;;;;5135900;27;20494;-71
2022/06/22 08:14:45;;;;;;;15.73;14.17;;;22.40;99.90;;;;;;5136551;27;20445;-70
2022/06/22 08:17:19;;;;;;;15.40;14.10;;;22.60;99.90;;;;;;5136110;27;20488;-71
2022/06/22 08:19:46;;;;;;;14.83;13.40;;;22.70;99.90;;;;;;5136606;27;20449;-71
2022/06/22 08:22:15;;;;;;;15.23;13.83;;;22.70;99.90;;;;;;5135778;27;20469;-70
2022/06/22 08:24:50;;;;;;;15.33;14.03;;;22.90;99.90;;;;;;5136592;27;20482;-69
2022/06/22 08:27:19;;;;;;;14.17;12.97;;;23.10;99.90;;;;;;5137198;27;20470;-69
2022/06/22 08:29:48;;;;;;;14.00;12.70;;;23.20;99.90;;;;;;5137207;27;20478;-69
2022/06/22 08:32:20;;;;;;;13.40;12.20;;;23.20;99.90;;;;;;5136937;27;20467;-69
2022/06/22 08:34:52;;;;;;;13.63;12.40;;;23.20;99.90;;;;;;5137369;27;20458;-70
2022/06/22 08:37:26;;;;;;;14.63;13.33;;;23.30;99.90;;;;;;5137719;27;20482;-69
2022/06/22 08:39:57;;;;;;;14.47;13.27;;;23.30;99.90;;;;;;5136872;27;20443;-69
2022/06/22 08:42:38;;;;;;;13.40;12.30;;;23.30;99.90;;;;;;5136718;27;20510;-69
2022/06/22 08:45:19;;;;;;;13.77;12.47;;;23.40;99.90;;;;;;5136913;27;20465;-69
2022/06/22 08:48:19;;;;;;;13.87;12.77;;;23.30;99.90;;;;;;5136788;27;20477;-69
2022/06/22 08:51:11;;;;;;;14.23;13.13;;;23.20;99.90;;;;;;5123620;27;20486;-69
2022/06/22 08:54:03;;;;;;;14.93;13.63;;;23.30;99.90;;;;;;5132726;27;20964;-69
2022/06/22 08:56:39;;;;;;;12.77;11.77;;;23.20;99.90;;;;;;5136989;27;20570;-69
2022/06/22 08:59:39;;;;;;;14.40;13.10;;;23.20;99.90;;;;;;5136727;27;20445;-69
2022/06/22 09:02:30;;;;;;;13.20;12.10;;;23.30;99.90;;;;;;5136208;27;20960;-68
2022/06/22 09:05:30;;;;;;;13.50;12.50;;;23.40;99.90;;;;;;5136569;27;20454;-69
2022/06/22 09:08:19;;;;;;;13.13;12.03;;;23.40;99.90;;;;;;5136754;27;20527;-69
2022/06/22 09:10:59;;;;;;;13.50;12.40;;;23.40;99.90;;;;;;5136433;27;20443;-69
2022/06/22 09:13:42;;;;;;;13.63;12.53;;;23.40;99.90;;;;;;5135979;27;20497;-69
2022/06/22 09:16:21;;;;;;;14.10;12.90;;;23.40;99.90;;;;;;5136272;27;20475;-69
2022/06/22 09:19:17;;;;;;;14.43;13.00;;;23.50;99.90;;;;;;5136200;27;20474;-69
2022/06/22 09:21:56;;;;;;;14.20;13.00;;;23.60;99.90;;;;;;5136409;27;20504;-69
2022/06/22 09:24:35;;;;;;;14.47;12.87;;;23.70;99.90;;;;;;5136038;27;20844;-69
2022/06/22 09:27:15;;;;;;;14.00;12.80;;;23.80;99.90;;;;;;5136098;27;20473;-69
2022/06/22 09:30:00;;;;;;;14.43;13.13;;;23.80;99.90;;;;;;5136085;27;20472;-69
2022/06/22 09:32:50;;;;;;;14.30;13.10;;;23.80;99.90;;;;;;5135707;27;20463;-69
2022/06/22 09:35:43;;;;;;;15.17;13.80;;;23.80;99.90;;;;;;5135878;27;20441;-69
2022/06/22 09:38:35;;;;;;;15.63;14.43;;;23.90;99.90;;;;;;5135600;27;20473;-69
2022/06/22 09:41:12;;;;;;;16.27;14.87;;;23.80;99.90;;;;;;5135836;27;20468;-69
2022/06/22 09:44:06;;;;;;;14.50;13.30;;;23.90;99.90;;;;;;5135316;27;20932;-69
2022/06/22 09:47:02;;;;;;;14.97;13.67;;;23.90;99.90;;;;;;5135710;27;20476;-69
2022/06/22 09:49:57;;;;;;;14.63;13.33;;;24.00;99.90;;;;;;5135620;27;20478;-69
2022/06/22 09:52:59;;;;;;;13.60;12.40;;;24.10;99.90;;;;;;5134949;27;20981;-69
2022/06/22 09:59:07;;;;;;;12.73;11.63;;;24.00;99.90;;;;;;5135472;27;20459;-69
2022/06/22 10:01:42;;;;;;;13.60;12.50;;;23.90;99.90;;;;;;5135200;27;20866;-69
2022/06/22 10:04:55;;;;;;;14.77;13.47;;;23.80;99.90;;;;;;5135186;27;20502;-69
2022/06/22 10:07:35;;;;;;;13.47;12.27;;;23.80;99.90;;;;;;5135360;27;20489;-69
2022/06/22 10:10:28;;;;;;;14.67;13.37;;;23.80;99.90;;;;;;5135309;27;20842;-69
2022/06/22 10:13:28;;;;;;;12.53;11.53;;;23.60;99.90;;;;;;5134715;27;20460;-69
2022/06/22 10:16:12;;;;;;;13.90;12.80;;;23.60;99.90;;;;;;5135037;27;20424;-69
2022/06/22 10:19:09;;;;;;;14.60;13.33;;;23.40;99.90;;;;;;5135058;27;20482;-69
2022/06/22 10:21:50;;;;;;;16.23;14.80;;;23.40;99.90;;;;;;5135006;27;20453;-69
2022/06/22 10:24:35;;;;;;;13.07;12.10;;;23.30;99.90;;;;;;5134904;27;20442;-69
2022/06/22 10:27:42;;;;;;;13.93;12.73;;;23.40;99.90;;;;;;5135035;27;20519;-69
2022/06/22 10:30:26;;;;;;;13.73;12.43;;;23.40;99.90;;;;;;5135001;27;20462;-69
2022/06/22 10:33:20;;;;;;;13.73;12.33;;;23.50;99.90;;;;;;5134744;27;20459;-69
2022/06/22 10:36:01;;;;;;;14.57;13.20;;;23.60;99.90;;;;;;5100744;27;20436;-69
2022/06/22 10:38:51;;;;;;;14.20;13.10;;;23.70;99.90;;;;;;5134754;27;20529;-69
2022/06/22 10:47:32;;;;;;;15.77;14.43;;;23.70;99.90;;;;;;5134775;27;20899;-69
2022/06/22 10:50:16;;;;;;;15.50;14.17;;;23.60;99.90;;;;;;5134588;27;20440;-69
2022/06/22 10:53:09;;;;;;;16.47;14.97;;;23.60;99.90;;;;;;5134277;27;20471;-69
2022/06/22 10:55:45;;;;;;;16.73;15.17;;;23.50;99.90;;;;;;5134664;27;20502;-69
2022/06/22 10:58:58;;;;;;;14.97;13.60;;;23.50;99.90;;;;;;5134547;27;20511;-69
2022/06/22 11:01:53;;;;;;;15.37;13.07;;;23.40;99.90;;;;;;5134532;27;20467;-69
2022/06/22 11:04:51;;;;;;;13.90;12.70;;;23.20;99.90;;;;;;5132699;27;20447;-69
2022/06/22 11:07:46;;;;;;;12.80;11.60;;;23.00;99.90;;;;;;5134310;27;20430;-69
2022/06/22 11:10:28;;;;;;;11.60;10.70;;;22.90;99.90;;;;;;5134339;27;20434;-69
2022/06/22 11:13:06;;;;;;;12.57;11.50;;;22.90;99.90;;;;;;5134143;27;20462;-69
2022/06/22 11:15:49;;;;;;;11.90;10.90;;;22.70;99.90;;;;;;5134419;27;20434;-69
2022/06/22 11:18:39;;;;;;;12.03;11.03;;;22.80;99.90;;;;;;5136716;27;20545;-69
2022/06/22 11:21:14;;;;;;;15.50;13.23;;;22.80;99.90;;;;;;5135802;27;20454;-69
2022/06/22 11:24:19;;;;;;;13.13;11.97;;;22.80;99.90;;;;;;5138107;27;20464;-69
2022/06/22 11:33:31;;;;;;;13.20;12.10;;;22.70;99.90;;;;;;5100866;27;20959;-69
2022/06/22 11:36:08;;;;;;;13.50;12.20;;;22.70;99.90;;;;;;5138312;27;20450;-69
2022/06/22 11:39:02;;;;;;;13.57;12.50;;;22.80;99.90;;;;;;5137948;27;21058;-69
2022/06/22 11:41:49;;;;;;;14.47;13.07;;;22.70;99.90;;;;;;5138119;27;20462;-69
2022/06/22 11:44:37;;;;;;;12.67;11.70;;;22.70;99.90;;;;;;5138024;27;20529;-69
2022/06/22 11:47:12;;;;;;;13.63;12.53;;;22.60;99.90;;;;;;5137834;27;20427;-69
2022/06/22 11:50:00;;;;;;;14.83;12.30;;;22.60;99.90;;;;;;5138018;27;20445;-69
2022/06/22 11:52:56;;;;;;;15.37;14.07;;;22.40;99.90;;;;;;5137526;27;20885;-69
2022/06/22 11:55:27;;;;;;;15.60;14.20;;;22.30;99.90;;;;;;5137950;27;20434;-69
2022/06/22 11:58:22;;;;;;;15.70;14.30;;;22.20;99.90;;;;;;5137627;27;20466;-69
2022/06/22 12:01:04;;;;;;;14.43;13.17;;;22.30;99.90;;;;;;5137769;27;20437;-69
2022/06/22 12:03:59;;;;;;;14.90;13.50;;;22.20;99.90;;;;;;5137597;27;20509;-69
2022/06/22 12:06:49;;;;;;;17.10;15.60;;;22.20;99.90;;;;;;5137685;27;20437;-69
2022/06/22 12:09:32;;;;;;;16.40;14.90;;;22.20;99.90;;;;;;5137709;27;20483;-69
2022/06/22 12:12:30;;;;;;;16.20;14.90;;;22.20;99.90;;;;;;5137600;27;20808;-69
2022/06/22 12:15:09;;;;;;;17.10;15.37;;;22.30;99.90;;;;;;5137547;27;20440;-68
2022/06/22 12:17:51;;;;;;;18.43;16.50;;;22.20;99.90;;;;;;5137308;27;20476;-69
2022/06/22 12:20:32;;;;;;;16.80;15.20;;;22.20;99.90;;;;;;5137429;27;20438;-69
2022/06/22 12:23:10;;;;;;;16.27;14.73;;;22.30;99.90;;;;;;5137192;27;20863;-69
2022/06/22 12:25:53;;;;;;;15.70;14.30;;;22.40;99.90;;;;;;5137183;27;20855;-69
2022/06/22 12:28:55;;;;;;;16.43;14.97;;;22.50;99.90;;;;;;5136663;27;20503;-69
2022/06/22 12:31:24;;;;;;;16.50;15.00;;;22.70;99.90;;;;;;5137383;27;20430;-69
2022/06/22 12:33:59;;;;;;;17.30;15.50;;;22.80;99.90;;;;;;5137018;27;20440;-69
2022/06/22 12:36:30;;;;;;;16.83;15.33;;;22.80;99.90;;;;;;5136864;27;20441;-69
2022/06/22 12:39:06;;;;;;;18.30;16.40;;;22.80;99.90;;;;;;5136498;27;20527;-69
2022/06/22 12:41:45;;;;;;;18.40;16.67;;;22.80;99.90;;;;;;5136806;27;20462;-69
2022/06/22 12:44:57;;;;;;;15.60;13.90;;;22.70;99.90;;;;;;5136525;27;20921;-69
2022/06/22 12:47:46;;;;;;;16.90;15.10;;;22.80;99.90;;;;;;5136679;27;20430;-69
2022/06/22 12:50:42;;;;;;;15.53;13.87;;;22.70;99.90;;;;;;5136564;27;20832;-69
2022/06/22 12:53:14;;;;;;;17.07;15.57;;;22.80;99.90;;;;;;5136206;27;20470;-69
2022/06/22 12:55:46;;;;;;;16.10;14.70;;;22.90;99.90;;;;;;5136744;27;20443;-69
2022/06/22 12:58:43;;;;;;;14.97;13.60;;;22.90;99.90;;;;;;5137038;27;20490;-69
2022/06/22 13:01:10;;;;;;;13.83;12.53;;;23.00;99.90;;;;;;5136479;27;20933;-69
2022/06/22 13:03:42;;;;;;;13.97;12.70;;;23.00;99.90;;;;;;5136415;27;20521;-69
2022/06/22 13:06:09;;;;;;;9.70;8.70;;;23.10;99.90;;;;;;5136560;27;20497;-69
2022/06/22 13:08:37;;;;;;;10.63;9.67;;;23.20;99.90;;;;;;5136454;27;20440;-69
2022/06/22 13:11:16;;;;;;;14.97;9.60;;;23.20;99.90;;;;;;5136313;27;20435;-69
2022/06/22 13:13:52;;;;;;;13.47;9.20;;;23.40;99.90;;;;;;5136321;27;20433;-69
2022/06/22 13:16:23;;;;;;;16.40;14.50;;;23.60;99.90;;;;;;5136235;27;20490;-69
2022/06/22 13:18:58;;;;;;;12.63;11.33;;;23.60;99.90;;;;;;5136045;27;20471;-69
2022/06/22 13:21:31;;;;;;;11.07;9.53;;;23.70;99.90;;;;;;5136127;27;20464;-69
2022/06/22 13:24:06;;;;;;;10.40;7.60;;;23.70;99.90;;;;;;5135920;27;20445;-69
2022/06/22 13:26:48;;;;;;;11.63;8.03;;;23.80;99.90;;;;;;5136153;27;20496;-69
2022/06/22 13:29:27;;;;;;;12.30;8.10;;;23.80;99.90;;;;;;5136053;27;20437;-69
2022/06/22 13:31:58;;;;;;;11.23;8.07;;;23.90;99.90;;;;;;5136020;27;20468;-69
2022/06/22 13:34:30;;;;;;;11.53;7.57;;;23.80;99.90;;;;;;5135675;27;20532;-69
2022/06/22 13:37:06;;;;;;;8.53;7.60;;;23.80;99.90;;;;;;5135865;27;20856;-69
2022/06/22 13:39:54;;;;;;;10.40;8.53;;;23.50;99.90;;;;;;5135262;27;20478;-69
2022/06/22 13:42:31;;;;;;;11.03;7.90;;;23.20;99.90;;;;;;5135370;27;20484;-69
2022/06/22 13:45:25;;;;;;;8.87;7.97;;;23.20;99.90;;;;;;5135688;27;20492;-69